sensor_id;sensor_type;location;lat;lon;timestamp;P1;durP1;ratioP1;P2;durP2;ratioP2
9520;SDS011;4798;41.574;23.734;2023-11-19T00:00:23;0.30;;;0.20;;
9520;SDS011;4798;41.574;23.734;2023-11-19T00:02:51;0.50;;;0.50;;
9520;SDS011;4798;41.574;23.734;2023-11-19T00:05:20;0.73;;;0.40;;
9520;SDS011;4798;41.574;23.734;2023-11-19T00:07:49;0.50;;;0.30;;
9520;SDS011;4798;41.574;23.734;2023-11-19T00:10:17;0.40;;;0.30;;
9520;SDS011;4798;41.574;23.734;2023-11-19T00:12:48;0.53;;;0.40;;
9520;SDS011;4798;41.574;23.734;2023-11-19T00:15:18;0.33;;;0.23;;
9520;SDS011;4798;41.574;23.734;2023-11-19T00:17:48;0.40;;;0.30;;
9520;SDS011;4798;41.574;23.734;2023-11-19T00:20:18;0.40;;;0.30;;
9520;SDS011;4798;41.574;23.734;2023-11-19T00:22:48;0.30;;;0.30;;
9520;SDS011;4798;41.574;23.734;2023-11-19T00:25:19;0.40;;;0.30;;
9520;SDS011;4798;41.574;23.734;2023-11-19T00:27:49;0.40;;;0.30;;
9520;SDS011;4798;41.574;23.734;2023-11-19T00:30:18;0.40;;;0.30;;
9520;SDS011;4798;41.574;23.734;2023-11-19T00:32:48;0.50;;;0.50;;
9520;SDS011;4798;41.574;23.734;2023-11-19T00:35:17;0.50;;;0.50;;
9520;SDS011;4798;41.574;23.734;2023-11-19T00:37:46;0.37;;;0.23;;
9520;SDS011;4798;41.574;23.734;2023-11-19T00:40:14;0.40;;;0.30;;
9520;SDS011;4798;41.574;23.734;2023-11-19T00:42:45;0.40;;;0.30;;
9520;SDS011;4798;41.574;23.734;2023-11-19T00:45:14;0.50;;;0.40;;
9520;SDS011;4798;41.574;23.734;2023-11-19T00:47:43;0.33;;;0.20;;
9520;SDS011;4798;41.574;23.734;2023-11-19T00:50:13;0.30;;;0.20;;
9520;SDS011;4798;41.574;23.734;2023-11-19T00:52:41;0.70;;;0.30;;
9520;SDS011;4798;41.574;23.734;2023-11-19T00:55:10;0.50;;;0.40;;
9520;SDS011;4798;41.574;23.734;2023-11-19T00:57:38;0.30;;;0.20;;
9520;SDS011;4798;41.574;23.734;2023-11-19T01:00:07;0.87;;;0.33;;
9520;SDS011;4798;41.574;23.734;2023-11-19T01:02:46;1.50;;;0.60;;
9520;SDS011;4798;41.574;23.734;2023-11-19T01:05:19;1.27;;;0.87;;
9520;SDS011;4798;41.574;23.734;2023-11-19T01:07:49;0.40;;;0.30;;
9520;SDS011;4798;41.574;23.734;2023-11-19T01:10:21;0.83;;;0.43;;
9520;SDS011;4798;41.574;23.734;2023-11-19T01:12:50;0.50;;;0.37;;
9520;SDS011;4798;41.574;23.734;2023-11-19T01:15:19;0.60;;;0.40;;
9520;SDS011;4798;41.574;23.734;2023-11-19T01:17:47;0.40;;;0.30;;
9520;SDS011;4798;41.574;23.734;2023-11-19T01:20:21;0.40;;;0.30;;
9520;SDS011;4798;41.574;23.734;2023-11-19T01:22:50;0.40;;;0.20;;
9520;SDS011;4798;41.574;23.734;2023-11-19T01:25:18;0.40;;;0.30;;
9520;SDS011;4798;41.574;23.734;2023-11-19T01:27:47;0.50;;;0.30;;
9520;SDS011;4798;41.574;23.734;2023-11-19T01:30:17;0.30;;;0.20;;
9520;SDS011;4798;41.574;23.734;2023-11-19T01:32:46;0.50;;;0.50;;
9520;SDS011;4798;41.574;23.734;2023-11-19T01:35:15;0.50;;;0.50;;
9520;SDS011;4798;41.574;23.734;2023-11-19T01:37:45;0.40;;;0.30;;
9520;SDS011;4798;41.574;23.734;2023-11-19T01:40:13;0.40;;;0.30;;
9520;SDS011;4798;41.574;23.734;2023-11-19T01:42:43;0.60;;;0.60;;
9520;SDS011;4798;41.574;23.734;2023-11-19T01:45:11;0.50;;;0.30;;
9520;SDS011;4798;41.574;23.734;2023-11-19T01:47:53;0.73;;;0.40;;
9520;SDS011;4798;41.574;23.734;2023-11-19T01:50:22;0.40;;;0.20;;
9520;SDS011;4798;41.574;23.734;2023-11-19T01:52:53;0.40;;;0.30;;
9520;SDS011;4798;41.574;23.734;2023-11-19T01:55:24;0.57;;;0.57;;
9520;SDS011;4798;41.574;23.734;2023-11-19T01:57:55;0.40;;;0.20;;
9520;SDS011;4798;41.574;23.734;2023-11-19T02:00:27;0.40;;;0.40;;
9520;SDS011;4798;41.574;23.734;2023-11-19T02:02:56;3.10;;;0.50;;
9520;SDS011;4798;41.574;23.734;2023-11-19T02:05:25;0.30;;;0.20;;
9520;SDS011;4798;41.574;23.734;2023-11-19T02:07:55;0.40;;;0.30;;
9520;SDS011;4798;41.574;23.734;2023-11-19T02:10:23;0.30;;;0.20;;
9520;SDS011;4798;41.574;23.734;2023-11-19T02:12:52;0.40;;;0.33;;
9520;SDS011;4798;41.574;23.734;2023-11-19T02:15:32;0.40;;;0.30;;
9520;SDS011;4798;41.574;23.734;2023-11-19T02:18:20;0.40;;;0.30;;
9520;SDS011;4798;41.574;23.734;2023-11-19T02:20:49;0.40;;;0.40;;
9520;SDS011;4798;41.574;23.734;2023-11-19T02:23:19;0.40;;;0.30;;
9520;SDS011;4798;41.574;23.734;2023-11-19T02:25:53;0.40;;;0.30;;
9520;SDS011;4798;41.574;23.734;2023-11-19T02:28:30;0.40;;;0.30;;
9520;SDS011;4798;41.574;23.734;2023-11-19T02:30:59;0.30;;;0.20;;
9520;SDS011;4798;41.574;23.734;2023-11-19T02:33:28;0.53;;;0.53;;
9520;SDS011;4798;41.574;23.734;2023-11-19T02:35:57;4.47;;;0.70;;
9520;SDS011;4798;41.574;23.734;2023-11-19T02:38:25;0.80;;;0.57;;
9520;SDS011;4798;41.574;23.734;2023-11-19T02:40:53;0.87;;;0.70;;
9520;SDS011;4798;41.574;23.734;2023-11-19T02:43:22;0.37;;;0.27;;
9520;SDS011;4798;41.574;23.734;2023-11-19T02:45:52;0.30;;;0.20;;
9520;SDS011;4798;41.574;23.734;2023-11-19T02:48:22;0.30;;;0.20;;
9520;SDS011;4798;41.574;23.734;2023-11-19T02:50:51;0.37;;;0.27;;
9520;SDS011;4798;41.574;23.734;2023-11-19T02:53:19;3.93;;;0.80;;
9520;SDS011;4798;41.574;23.734;2023-11-19T02:55:49;0.37;;;0.30;;
9520;SDS011;4798;41.574;23.734;2023-11-19T02:58:18;0.50;;;0.33;;
9520;SDS011;4798;41.574;23.734;2023-11-19T03:00:52;0.40;;;0.30;;
9520;SDS011;4798;41.574;23.734;2023-11-19T03:03:24;0.60;;;0.50;;
9520;SDS011;4798;41.574;23.734;2023-11-19T03:05:57;0.60;;;0.60;;
9520;SDS011;4798;41.574;23.734;2023-11-19T03:08:26;0.50;;;0.50;;
9520;SDS011;4798;41.574;23.734;2023-11-19T03:10:54;0.40;;;0.30;;
9520;SDS011;4798;41.574;23.734;2023-11-19T03:13:22;0.70;;;0.70;;
9520;SDS011;4798;41.574;23.734;2023-11-19T03:15:52;0.50;;;0.50;;
9520;SDS011;4798;41.574;23.734;2023-11-19T03:18:21;0.40;;;0.30;;
9520;SDS011;4798;41.574;23.734;2023-11-19T03:20:50;0.40;;;0.27;;
9520;SDS011;4798;41.574;23.734;2023-11-19T03:23:19;0.30;;;0.20;;
9520;SDS011;4798;41.574;23.734;2023-11-19T03:25:47;0.30;;;0.20;;
9520;SDS011;4798;41.574;23.734;2023-11-19T03:28:16;0.40;;;0.20;;
9520;SDS011;4798;41.574;23.734;2023-11-19T03:30:44;0.80;;;0.80;;
9520;SDS011;4798;41.574;23.734;2023-11-19T03:33:14;0.40;;;0.40;;
9520;SDS011;4798;41.574;23.734;2023-11-19T03:35:43;0.90;;;0.90;;
9520;SDS011;4798;41.574;23.734;2023-11-19T03:38:12;0.60;;;0.57;;
9520;SDS011;4798;41.574;23.734;2023-11-19T03:40:41;1.73;;;0.70;;
9520;SDS011;4798;41.574;23.734;2023-11-19T03:43:09;0.80;;;0.80;;
9520;SDS011;4798;41.574;23.734;2023-11-19T03:45:39;2.63;;;0.70;;
9520;SDS011;4798;41.574;23.734;2023-11-19T03:48:08;0.50;;;0.50;;
9520;SDS011;4798;41.574;23.734;2023-11-19T03:50:38;5.07;;;0.70;;
9520;SDS011;4798;41.574;23.734;2023-11-19T03:53:06;0.60;;;0.37;;
9520;SDS011;4798;41.574;23.734;2023-11-19T03:55:34;1.07;;;0.43;;
9520;SDS011;4798;41.574;23.734;2023-11-19T03:58:03;0.50;;;0.40;;
9520;SDS011;4798;41.574;23.734;2023-11-19T04:00:32;0.80;;;0.70;;
9520;SDS011;4798;41.574;23.734;2023-11-19T04:03:00;1.03;;;0.60;;
9520;SDS011;4798;41.574;23.734;2023-11-19T04:05:29;0.70;;;0.70;;
9520;SDS011;4798;41.574;23.734;2023-11-19T04:07:59;0.40;;;0.30;;
9520;SDS011;4798;41.574;23.734;2023-11-19T04:10:28;1.10;;;1.10;;
9520;SDS011;4798;41.574;23.734;2023-11-19T04:12:56;2.67;;;0.50;;
9520;SDS011;4798;41.574;23.734;2023-11-19T04:15:25;0.40;;;0.30;;
9520;SDS011;4798;41.574;23.734;2023-11-19T04:17:53;0.50;;;0.40;;
9520;SDS011;4798;41.574;23.734;2023-11-19T04:20:22;0.40;;;0.30;;
9520;SDS011;4798;41.574;23.734;2023-11-19T04:22:50;0.40;;;0.30;;
9520;SDS011;4798;41.574;23.734;2023-11-19T04:25:21;0.30;;;0.27;;
9520;SDS011;4798;41.574;23.734;2023-11-19T04:27:52;0.73;;;0.73;;
9520;SDS011;4798;41.574;23.734;2023-11-19T04:30:21;0.57;;;0.50;;
9520;SDS011;4798;41.574;23.734;2023-11-19T04:32:49;0.73;;;0.73;;
9520;SDS011;4798;41.574;23.734;2023-11-19T04:35:18;0.83;;;0.67;;
9520;SDS011;4798;41.574;23.734;2023-11-19T04:37:47;1.93;;;1.83;;
9520;SDS011;4798;41.574;23.734;2023-11-19T04:40:15;2.47;;;1.03;;
9520;SDS011;4798;41.574;23.734;2023-11-19T04:42:46;1.77;;;0.60;;
9520;SDS011;4798;41.574;23.734;2023-11-19T04:45:15;1.13;;;0.90;;
9520;SDS011;4798;41.574;23.734;2023-11-19T04:47:43;0.60;;;0.60;;
9520;SDS011;4798;41.574;23.734;2023-11-19T04:50:12;1.93;;;0.77;;
9520;SDS011;4798;41.574;23.734;2023-11-19T04:52:40;0.83;;;0.73;;
9520;SDS011;4798;41.574;23.734;2023-11-19T04:55:12;1.07;;;0.97;;
9520;SDS011;4798;41.574;23.734;2023-11-19T04:57:41;0.47;;;0.43;;
9520;SDS011;4798;41.574;23.734;2023-11-19T05:00:12;0.70;;;0.70;;
9520;SDS011;4798;41.574;23.734;2023-11-19T05:02:43;1.53;;;0.37;;
9520;SDS011;4798;41.574;23.734;2023-11-19T05:05:12;0.63;;;0.63;;
9520;SDS011;4798;41.574;23.734;2023-11-19T05:07:40;2.00;;;1.90;;
9520;SDS011;4798;41.574;23.734;2023-11-19T05:10:09;4.53;;;1.10;;
9520;SDS011;4798;41.574;23.734;2023-11-19T05:12:37;0.93;;;0.90;;
9520;SDS011;4798;41.574;23.734;2023-11-19T05:15:08;4.30;;;0.70;;
9520;SDS011;4798;41.574;23.734;2023-11-19T05:17:40;1.23;;;1.17;;
9520;SDS011;4798;41.574;23.734;2023-11-19T05:20:09;2.00;;;1.90;;
9520;SDS011;4798;41.574;23.734;2023-11-19T05:22:40;2.43;;;0.90;;
9520;SDS011;4798;41.574;23.734;2023-11-19T05:25:09;0.90;;;0.90;;
9520;SDS011;4798;41.574;23.734;2023-11-19T05:27:38;0.40;;;0.33;;
9520;SDS011;4798;41.574;23.734;2023-11-19T05:30:07;0.40;;;0.30;;
9520;SDS011;4798;41.574;23.734;2023-11-19T05:32:37;0.40;;;0.37;;
9520;SDS011;4798;41.574;23.734;2023-11-19T05:35:08;0.60;;;0.40;;
9520;SDS011;4798;41.574;23.734;2023-11-19T05:37:36;1.50;;;1.50;;
9520;SDS011;4798;41.574;23.734;2023-11-19T05:40:06;7.50;;;3.40;;
9520;SDS011;4798;41.574;23.734;2023-11-19T05:42:42;2.40;;;1.83;;
9520;SDS011;4798;41.574;23.734;2023-11-19T05:45:11;2.30;;;2.20;;
9520;SDS011;4798;41.574;23.734;2023-11-19T05:47:41;2.23;;;2.13;;
9520;SDS011;4798;41.574;23.734;2023-11-19T05:50:10;0.80;;;0.70;;
9520;SDS011;4798;41.574;23.734;2023-11-19T05:52:39;1.50;;;1.40;;
9520;SDS011;4798;41.574;23.734;2023-11-19T05:55:07;4.93;;;1.60;;
9520;SDS011;4798;41.574;23.734;2023-11-19T05:57:37;1.67;;;1.57;;
9520;SDS011;4798;41.574;23.734;2023-11-19T06:00:09;5.50;;;2.13;;
9520;SDS011;4798;41.574;23.734;2023-11-19T06:02:40;2.97;;;2.70;;
9520;SDS011;4798;41.574;23.734;2023-11-19T06:05:09;1.50;;;1.40;;
9520;SDS011;4798;41.574;23.734;2023-11-19T06:07:38;24.00;;;4.67;;
9520;SDS011;4798;41.574;23.734;2023-11-19T06:10:08;10.27;;;5.70;;
9520;SDS011;4798;41.574;23.734;2023-11-19T06:12:37;2.30;;;1.63;;
9520;SDS011;4798;41.574;23.734;2023-11-19T06:15:08;0.80;;;0.80;;
9520;SDS011;4798;41.574;23.734;2023-11-19T06:17:38;0.77;;;0.77;;
9520;SDS011;4798;41.574;23.734;2023-11-19T06:20:09;1.07;;;1.07;;
9520;SDS011;4798;41.574;23.734;2023-11-19T06:22:38;0.90;;;0.90;;
9520;SDS011;4798;41.574;23.734;2023-11-19T06:25:09;5.50;;;1.33;;
9520;SDS011;4798;41.574;23.734;2023-11-19T06:27:39;21.07;;;1.23;;
9520;SDS011;4798;41.574;23.734;2023-11-19T06:30:08;1.73;;;1.63;;
9520;SDS011;4798;41.574;23.734;2023-11-19T06:32:36;0.80;;;0.80;;
9520;SDS011;4798;41.574;23.734;2023-11-19T06:35:05;2.27;;;1.93;;
9520;SDS011;4798;41.574;23.734;2023-11-19T06:37:35;0.60;;;0.60;;
9520;SDS011;4798;41.574;23.734;2023-11-19T06:40:07;1.13;;;1.13;;
9520;SDS011;4798;41.574;23.734;2023-11-19T06:42:37;0.63;;;0.63;;
9520;SDS011;4798;41.574;23.734;2023-11-19T06:45:06;1.33;;;0.30;;
9520;SDS011;4798;41.574;23.734;2023-11-19T06:47:36;0.67;;;0.67;;
9520;SDS011;4798;41.574;23.734;2023-11-19T06:50:05;0.50;;;0.30;;
9520;SDS011;4798;41.574;23.734;2023-11-19T06:52:37;0.67;;;0.43;;
9520;SDS011;4798;41.574;23.734;2023-11-19T06:55:06;1.30;;;1.30;;
9520;SDS011;4798;41.574;23.734;2023-11-19T06:57:36;1.87;;;1.73;;
9520;SDS011;4798;41.574;23.734;2023-11-19T07:00:05;0.83;;;0.83;;
9520;SDS011;4798;41.574;23.734;2023-11-19T07:02:35;0.97;;;0.80;;
9520;SDS011;4798;41.574;23.734;2023-11-19T07:05:04;1.03;;;1.00;;
9520;SDS011;4798;41.574;23.734;2023-11-19T07:07:32;2.37;;;1.17;;
9520;SDS011;4798;41.574;23.734;2023-11-19T07:10:04;0.57;;;0.43;;
9520;SDS011;4798;41.574;23.734;2023-11-19T07:12:36;0.77;;;0.47;;
9520;SDS011;4798;41.574;23.734;2023-11-19T07:15:04;0.63;;;0.53;;
9520;SDS011;4798;41.574;23.734;2023-11-19T07:17:33;0.60;;;0.40;;
9520;SDS011;4798;41.574;23.734;2023-11-19T07:20:02;3.47;;;0.40;;
9520;SDS011;4798;41.574;23.734;2023-11-19T07:22:31;0.50;;;0.33;;
9520;SDS011;4798;41.574;23.734;2023-11-19T07:25:00;0.60;;;0.50;;
9520;SDS011;4798;41.574;23.734;2023-11-19T07:27:30;3.30;;;0.60;;
9520;SDS011;4798;41.574;23.734;2023-11-19T07:29:58;0.53;;;0.40;;
9520;SDS011;4798;41.574;23.734;2023-11-19T07:32:27;0.87;;;0.30;;
9520;SDS011;4798;41.574;23.734;2023-11-19T07:34:55;0.50;;;0.30;;
9520;SDS011;4798;41.574;23.734;2023-11-19T07:37:24;0.63;;;0.40;;
9520;SDS011;4798;41.574;23.734;2023-11-19T07:39:52;0.50;;;0.40;;
9520;SDS011;4798;41.574;23.734;2023-11-19T07:42:21;0.40;;;0.30;;
9520;SDS011;4798;41.574;23.734;2023-11-19T07:44:51;0.40;;;0.30;;
9520;SDS011;4798;41.574;23.734;2023-11-19T07:47:21;0.50;;;0.30;;
9520;SDS011;4798;41.574;23.734;2023-11-19T07:49:50;0.40;;;0.30;;
9520;SDS011;4798;41.574;23.734;2023-11-19T07:52:19;0.60;;;0.43;;
9520;SDS011;4798;41.574;23.734;2023-11-19T07:54:48;0.40;;;0.40;;
9520;SDS011;4798;41.574;23.734;2023-11-19T07:57:16;0.40;;;0.20;;
9520;SDS011;4798;41.574;23.734;2023-11-19T07:59:45;0.50;;;0.40;;
9520;SDS011;4798;41.574;23.734;2023-11-19T08:02:16;0.40;;;0.30;;
9520;SDS011;4798;41.574;23.734;2023-11-19T08:04:45;0.40;;;0.23;;
9520;SDS011;4798;41.574;23.734;2023-11-19T08:07:17;0.40;;;0.30;;
9520;SDS011;4798;41.574;23.734;2023-11-19T08:09:45;0.40;;;0.30;;
9520;SDS011;4798;41.574;23.734;2023-11-19T08:12:14;0.60;;;0.30;;
9520;SDS011;4798;41.574;23.734;2023-11-19T08:14:44;0.50;;;0.30;;
9520;SDS011;4798;41.574;23.734;2023-11-19T08:17:12;0.50;;;0.40;;
9520;SDS011;4798;41.574;23.734;2023-11-19T08:19:42;0.50;;;0.30;;
9520;SDS011;4798;41.574;23.734;2023-11-19T08:22:10;0.40;;;0.30;;
9520;SDS011;4798;41.574;23.734;2023-11-19T08:24:39;0.50;;;0.40;;
9520;SDS011;4798;41.574;23.734;2023-11-19T08:27:07;0.80;;;0.63;;
9520;SDS011;4798;41.574;23.734;2023-11-19T08:29:36;0.40;;;0.20;;
9520;SDS011;4798;41.574;23.734;2023-11-19T08:32:05;0.53;;;0.53;;
9520;SDS011;4798;41.574;23.734;2023-11-19T08:34:34;0.40;;;0.20;;
9520;SDS011;4798;41.574;23.734;2023-11-19T08:37:04;0.40;;;0.30;;
9520;SDS011;4798;41.574;23.734;2023-11-19T08:39:33;0.40;;;0.30;;
9520;SDS011;4798;41.574;23.734;2023-11-19T08:42:01;0.50;;;0.40;;
9520;SDS011;4798;41.574;23.734;2023-11-19T08:44:30;0.50;;;0.30;;
9520;SDS011;4798;41.574;23.734;2023-11-19T08:46:58;0.60;;;0.40;;
9520;SDS011;4798;41.574;23.734;2023-11-19T08:49:27;0.43;;;0.27;;
9520;SDS011;4798;41.574;23.734;2023-11-19T08:51:55;0.80;;;0.50;;
9520;SDS011;4798;41.574;23.734;2023-11-19T08:54:25;0.50;;;0.50;;
9520;SDS011;4798;41.574;23.734;2023-11-19T08:56:54;0.50;;;0.50;;
9520;SDS011;4798;41.574;23.734;2023-11-19T08:59:22;1.07;;;0.47;;
9520;SDS011;4798;41.574;23.734;2023-11-19T09:01:51;3.17;;;0.70;;
9520;SDS011;4798;41.574;23.734;2023-11-19T09:04:19;0.40;;;0.30;;
9520;SDS011;4798;41.574;23.734;2023-11-19T09:06:49;0.40;;;0.30;;
9520;SDS011;4798;41.574;23.734;2023-11-19T09:09:18;0.40;;;0.30;;
9520;SDS011;4798;41.574;23.734;2023-11-19T09:11:47;0.40;;;0.30;;
9520;SDS011;4798;41.574;23.734;2023-11-19T09:14:16;0.50;;;0.30;;
9520;SDS011;4798;41.574;23.734;2023-11-19T09:16:49;0.40;;;0.30;;
9520;SDS011;4798;41.574;23.734;2023-11-19T09:19:17;0.40;;;0.30;;
9520;SDS011;4798;41.574;23.734;2023-11-19T09:21:45;0.77;;;0.77;;
9520;SDS011;4798;41.574;23.734;2023-11-19T09:24:14;0.50;;;0.50;;
9520;SDS011;4798;41.574;23.734;2023-11-19T09:26:43;0.50;;;0.30;;
9520;SDS011;4798;41.574;23.734;2023-11-19T09:29:13;0.53;;;0.30;;
9520;SDS011;4798;41.574;23.734;2023-11-19T09:31:43;0.40;;;0.20;;
9520;SDS011;4798;41.574;23.734;2023-11-19T09:34:11;0.40;;;0.30;;
9520;SDS011;4798;41.574;23.734;2023-11-19T09:36:40;0.40;;;0.30;;
9520;SDS011;4798;41.574;23.734;2023-11-19T09:39:11;0.40;;;0.40;;
9520;SDS011;4798;41.574;23.734;2023-11-19T09:41:41;1.90;;;0.30;;
9520;SDS011;4798;41.574;23.734;2023-11-19T09:44:13;0.60;;;0.40;;
9520;SDS011;4798;41.574;23.734;2023-11-19T09:46:45;0.40;;;0.30;;
9520;SDS011;4798;41.574;23.734;2023-11-19T09:49:16;1.50;;;0.50;;
9520;SDS011;4798;41.574;23.734;2023-11-19T09:52:02;0.40;;;0.30;;
9520;SDS011;4798;41.574;23.734;2023-11-19T09:54:31;0.50;;;0.40;;
9520;SDS011;4798;41.574;23.734;2023-11-19T09:57:00;0.40;;;0.30;;
9520;SDS011;4798;41.574;23.734;2023-11-19T09:59:32;0.40;;;0.30;;
9520;SDS011;4798;41.574;23.734;2023-11-19T10:02:01;0.60;;;0.53;;
9520;SDS011;4798;41.574;23.734;2023-11-19T10:04:33;0.40;;;0.30;;
9520;SDS011;4798;41.574;23.734;2023-11-19T10:07:04;0.40;;;0.20;;
9520;SDS011;4798;41.574;23.734;2023-11-19T10:09:32;6.00;;;0.50;;
9520;SDS011;4798;41.574;23.734;2023-11-19T10:12:01;0.60;;;0.60;;
9520;SDS011;4798;41.574;23.734;2023-11-19T10:14:30;0.40;;;0.30;;
9520;SDS011;4798;41.574;23.734;2023-11-19T10:17:04;0.40;;;0.37;;
9520;SDS011;4798;41.574;23.734;2023-11-19T10:19:35;0.40;;;0.27;;
9520;SDS011;4798;41.574;23.734;2023-11-19T10:22:04;0.53;;;0.43;;
9520;SDS011;4798;41.574;23.734;2023-11-19T10:24:33;0.53;;;0.50;;
9520;SDS011;4798;41.574;23.734;2023-11-19T10:27:07;0.40;;;0.30;;
9520;SDS011;4798;41.574;23.734;2023-11-19T10:29:37;0.60;;;0.60;;
9520;SDS011;4798;41.574;23.734;2023-11-19T10:32:06;0.40;;;0.30;;
9520;SDS011;4798;41.574;23.734;2023-11-19T10:34:52;0.67;;;0.47;;
9520;SDS011;4798;41.574;23.734;2023-11-19T10:37:32;0.50;;;0.47;;
9520;SDS011;4798;41.574;23.734;2023-11-19T10:40:05;1.33;;;0.30;;
9520;SDS011;4798;41.574;23.734;2023-11-19T10:42:37;0.40;;;0.30;;
9520;SDS011;4798;41.574;23.734;2023-11-19T10:45:12;0.60;;;0.30;;
9520;SDS011;4798;41.574;23.734;2023-11-19T10:47:51;0.37;;;0.30;;
9520;SDS011;4798;41.574;23.734;2023-11-19T10:50:20;0.50;;;0.37;;
9520;SDS011;4798;41.574;23.734;2023-11-19T10:52:50;0.40;;;0.30;;
9520;SDS011;4798;41.574;23.734;2023-11-19T10:55:22;0.40;;;0.30;;
9520;SDS011;4798;41.574;23.734;2023-11-19T10:57:56;0.63;;;0.60;;
9520;SDS011;4798;41.574;23.734;2023-11-19T11:00:30;0.70;;;0.70;;
9520;SDS011;4798;41.574;23.734;2023-11-19T11:03:08;0.53;;;0.50;;
9520;SDS011;4798;41.574;23.734;2023-11-19T11:05:39;0.87;;;0.67;;
9520;SDS011;4798;41.574;23.734;2023-11-19T11:08:09;0.40;;;0.40;;
9520;SDS011;4798;41.574;23.734;2023-11-19T11:10:39;0.40;;;0.30;;
9520;SDS011;4798;41.574;23.734;2023-11-19T11:13:15;0.60;;;0.30;;
9520;SDS011;4798;41.574;23.734;2023-11-19T11:15:46;4.63;;;0.53;;
9520;SDS011;4798;41.574;23.734;2023-11-19T11:18:16;0.43;;;0.40;;
9520;SDS011;4798;41.574;23.734;2023-11-19T11:20:45;0.80;;;0.80;;
9520;SDS011;4798;41.574;23.734;2023-11-19T11:23:34;0.40;;;0.30;;
9520;SDS011;4798;41.574;23.734;2023-11-19T11:26:26;1.00;;;1.00;;
9520;SDS011;4798;41.574;23.734;2023-11-19T11:29:09;0.50;;;0.40;;
9520;SDS011;4798;41.574;23.734;2023-11-19T11:31:48;0.30;;;0.20;;
9520;SDS011;4798;41.574;23.734;2023-11-19T11:34:28;0.40;;;0.30;;
9520;SDS011;4798;41.574;23.734;2023-11-19T11:37:15;0.80;;;0.30;;
9520;SDS011;4798;41.574;23.734;2023-11-19T11:39:47;0.40;;;0.30;;
9520;SDS011;4798;41.574;23.734;2023-11-19T11:42:31;2.63;;;0.40;;
9520;SDS011;4798;41.574;23.734;2023-11-19T11:45:03;0.40;;;0.30;;
9520;SDS011;4798;41.574;23.734;2023-11-19T11:50:50;0.40;;;0.37;;
9520;SDS011;4798;41.574;23.734;2023-11-19T11:53:25;0.37;;;0.27;;
9520;SDS011;4798;41.574;23.734;2023-11-19T11:55:55;0.40;;;0.30;;
9520;SDS011;4798;41.574;23.734;2023-11-19T11:58:26;0.40;;;0.40;;
9520;SDS011;4798;41.574;23.734;2023-11-19T12:01:00;0.40;;;0.40;;
9520;SDS011;4798;41.574;23.734;2023-11-19T12:03:34;0.40;;;0.30;;
9520;SDS011;4798;41.574;23.734;2023-11-19T12:06:02;1.23;;;0.60;;
9520;SDS011;4798;41.574;23.734;2023-11-19T12:08:31;0.40;;;0.30;;
9520;SDS011;4798;41.574;23.734;2023-11-19T12:11:19;0.40;;;0.30;;
9520;SDS011;4798;41.574;23.734;2023-11-19T12:13:54;0.60;;;0.60;;
9520;SDS011;4798;41.574;23.734;2023-11-19T12:16:26;0.40;;;0.30;;
9520;SDS011;4798;41.574;23.734;2023-11-19T12:18:57;0.40;;;0.30;;
9520;SDS011;4798;41.574;23.734;2023-11-19T12:21:32;0.70;;;0.40;;
9520;SDS011;4798;41.574;23.734;2023-11-19T12:24:04;0.50;;;0.40;;
9520;SDS011;4798;41.574;23.734;2023-11-19T12:26:35;0.40;;;0.30;;
9520;SDS011;4798;41.574;23.734;2023-11-19T12:29:05;0.40;;;0.30;;
9520;SDS011;4798;41.574;23.734;2023-11-19T12:31:35;0.63;;;0.40;;
9520;SDS011;4798;41.574;23.734;2023-11-19T12:34:09;0.40;;;0.30;;
9520;SDS011;4798;41.574;23.734;2023-11-19T12:36:40;0.60;;;0.43;;
9520;SDS011;4798;41.574;23.734;2023-11-19T12:39:12;0.40;;;0.30;;
9520;SDS011;4798;41.574;23.734;2023-11-19T12:41:50;0.50;;;0.40;;
9520;SDS011;4798;41.574;23.734;2023-11-19T12:44:20;0.40;;;0.30;;
9520;SDS011;4798;41.574;23.734;2023-11-19T12:47:04;0.40;;;0.30;;
9520;SDS011;4798;41.574;23.734;2023-11-19T12:49:35;0.40;;;0.30;;
9520;SDS011;4798;41.574;23.734;2023-11-19T12:52:11;1.13;;;0.77;;
9520;SDS011;4798;41.574;23.734;2023-11-19T12:54:40;0.43;;;0.40;;
9520;SDS011;4798;41.574;23.734;2023-11-19T12:57:09;0.77;;;0.40;;
9520;SDS011;4798;41.574;23.734;2023-11-19T12:59:37;0.40;;;0.40;;
9520;SDS011;4798;41.574;23.734;2023-11-19T13:02:06;0.53;;;0.50;;
9520;SDS011;4798;41.574;23.734;2023-11-19T13:04:37;0.40;;;0.30;;
9520;SDS011;4798;41.574;23.734;2023-11-19T13:07:05;0.80;;;0.80;;
9520;SDS011;4798;41.574;23.734;2023-11-19T13:09:34;4.43;;;0.37;;
9520;SDS011;4798;41.574;23.734;2023-11-19T13:12:11;0.53;;;0.30;;
9520;SDS011;4798;41.574;23.734;2023-11-19T13:14:42;0.40;;;0.30;;
9520;SDS011;4798;41.574;23.734;2023-11-19T13:17:15;0.40;;;0.27;;
9520;SDS011;4798;41.574;23.734;2023-11-19T13:19:46;0.40;;;0.30;;
9520;SDS011;4798;41.574;23.734;2023-11-19T13:22:17;0.70;;;0.30;;
9520;SDS011;4798;41.574;23.734;2023-11-19T13:24:46;0.40;;;0.30;;
9520;SDS011;4798;41.574;23.734;2023-11-19T13:27:14;0.40;;;0.30;;
9520;SDS011;4798;41.574;23.734;2023-11-19T13:29:43;0.40;;;0.40;;
9520;SDS011;4798;41.574;23.734;2023-11-19T13:32:12;0.40;;;0.30;;
9520;SDS011;4798;41.574;23.734;2023-11-19T13:34:40;0.40;;;0.30;;
9520;SDS011;4798;41.574;23.734;2023-11-19T13:37:10;0.40;;;0.20;;
9520;SDS011;4798;41.574;23.734;2023-11-19T13:39:41;0.40;;;0.27;;
9520;SDS011;4798;41.574;23.734;2023-11-19T13:42:10;0.40;;;0.20;;
9520;SDS011;4798;41.574;23.734;2023-11-19T13:44:39;0.50;;;0.50;;
9520;SDS011;4798;41.574;23.734;2023-11-19T13:47:09;0.60;;;0.30;;
9520;SDS011;4798;41.574;23.734;2023-11-19T13:49:38;0.50;;;0.50;;
9520;SDS011;4798;41.574;23.734;2023-11-19T13:52:06;0.87;;;0.40;;
9520;SDS011;4798;41.574;23.734;2023-11-19T13:54:36;0.50;;;0.30;;
9520;SDS011;4798;41.574;23.734;2023-11-19T13:57:05;1.30;;;0.93;;
9520;SDS011;4798;41.574;23.734;2023-11-19T13:59:34;0.60;;;0.50;;
9520;SDS011;4798;41.574;23.734;2023-11-19T14:02:08;0.90;;;0.80;;
9520;SDS011;4798;41.574;23.734;2023-11-19T14:04:36;1.23;;;1.23;;
9520;SDS011;4798;41.574;23.734;2023-11-19T14:07:05;3.67;;;0.90;;
9520;SDS011;4798;41.574;23.734;2023-11-19T14:09:34;6.57;;;1.63;;
9520;SDS011;4798;41.574;23.734;2023-11-19T14:12:04;1.83;;;1.73;;
9520;SDS011;4798;41.574;23.734;2023-11-19T14:14:33;6.30;;;1.23;;
9520;SDS011;4798;41.574;23.734;2023-11-19T14:17:01;1.30;;;1.20;;
9520;SDS011;4798;41.574;23.734;2023-11-19T14:19:33;1.80;;;1.70;;
9520;SDS011;4798;41.574;23.734;2023-11-19T14:22:02;8.20;;;0.80;;
9520;SDS011;4798;41.574;23.734;2023-11-19T14:24:30;4.20;;;1.20;;
9520;SDS011;4798;41.574;23.734;2023-11-19T14:26:59;5.33;;;0.70;;
9520;SDS011;4798;41.574;23.734;2023-11-19T14:29:29;1.00;;;0.67;;
9520;SDS011;4798;41.574;23.734;2023-11-19T14:31:58;1.43;;;1.33;;
9520;SDS011;4798;41.574;23.734;2023-11-19T14:34:26;1.70;;;1.60;;
9520;SDS011;4798;41.574;23.734;2023-11-19T14:36:55;0.70;;;0.50;;
9520;SDS011;4798;41.574;23.734;2023-11-19T14:39:23;1.93;;;1.73;;
9520;SDS011;4798;41.574;23.734;2023-11-19T14:41:52;1.30;;;1.20;;
9520;SDS011;4798;41.574;23.734;2023-11-19T14:44:24;3.40;;;3.10;;
9520;SDS011;4798;41.574;23.734;2023-11-19T14:46:54;9.97;;;1.17;;
9520;SDS011;4798;41.574;23.734;2023-11-19T14:49:23;2.63;;;2.03;;
9520;SDS011;4798;41.574;23.734;2023-11-19T14:51:52;5.10;;;4.80;;
9520;SDS011;4798;41.574;23.734;2023-11-19T14:54:21;2.80;;;2.60;;
9520;SDS011;4798;41.574;23.734;2023-11-19T14:56:50;3.00;;;2.80;;
9520;SDS011;4798;41.574;23.734;2023-11-19T14:59:19;9.77;;;1.80;;
9520;SDS011;4798;41.574;23.734;2023-11-19T15:01:48;2.07;;;1.40;;
9520;SDS011;4798;41.574;23.734;2023-11-19T15:04:18;6.93;;;1.73;;
9520;SDS011;4798;41.574;23.734;2023-11-19T15:06:46;11.80;;;1.97;;
9520;SDS011;4798;41.574;23.734;2023-11-19T15:09:15;3.43;;;2.53;;
9520;SDS011;4798;41.574;23.734;2023-11-19T15:11:44;3.10;;;2.90;;
9520;SDS011;4798;41.574;23.734;2023-11-19T15:14:12;3.70;;;1.90;;
9520;SDS011;4798;41.574;23.734;2023-11-19T15:16:43;6.43;;;0.93;;
9520;SDS011;4798;41.574;23.734;2023-11-19T15:19:13;1.93;;;1.83;;
9520;SDS011;4798;41.574;23.734;2023-11-19T15:21:43;1.07;;;0.87;;